Lorraine — A8IZ3 — position and weather

sailwx.info

Track history (hours):
 
Tides and Currents Weather Stations Pressure Air Temp Water Temp Dewpoint Dewpoint Depression Visibility Wind Speed Wind Dir Waves Ship Positions

Lorraine

Last reported at 2015-Jun-17 17:34 UTC. Time now 2015-Jul-03 06:17 UTC.
Position N 22°21' E 120°01'.
Warning: this ship's position is 15 days out of date.

Length 221 m; draft 10.1 m.

Type: Ship. MMSI: 636012905.

Date/timePositionNaut miles runAvg speedWind from/ knotsBaromVisibWave heightAir tempDewpointWater temp
2015-Jun-17 17:34N 22°21' E 120°01'1616.5
2015-Jun-17 16:34N 22°33' E 120°13'6 6.3
2015-Jun-17 15:33N 22°33' E 120°20'0 0.0
2015-Jun-17 14:33N 22°33' E 120°20'0 0.0
2015-Jun-17 13:32N 22°33' E 120°20'0 0.0
2015-Jun-17 12:32N 22°33' E 120°20'0 0.0
2015-Jun-17 10:28N 22°33' E 120°20'0 0.0
2015-Jun-17 08:09N 22°33' E 120°20'0 0.0
2015-Jun-17 07:26N 22°33' E 120°20'1 1.5
2015-Jun-17 06:33N 22°33' E 120°18'9 8.7
2015-Jun-17 05:33N 22°37' E 120°10'2020.3
2015-Jun-17 04:33N 22°51' E 119°54'40616.7
2015-Jun-16 04:14N 29°12' E 122°32'2917.2
2015-Jun-16 02:33N 29°40' E 122°33'1515.4
2015-Jun-16 01:33N 29°47' E 122°16'1212.1
2015-Jun-16 00:32N 29°55' E 122°06'1010.5
2015-Jun-15 23:33N 29°58' E 121°55'0 0.1
2015-Jun-15 22:29N 29°58' E 121°55'0 0.0
2015-Jun-15 21:29N 29°58' E 121°55'0 0.0
2015-Jun-15 20:28N 29°58' E 121°55'0 0.0
2015-Jun-15 19:28N 29°58' E 121°55'0 0.0
2015-Jun-15 18:28N 29°58' E 121°55'0 0.0
2015-Jun-15 17:27N 29°58' E 121°55'0 0.0
2015-Jun-15 16:33N 29°58' E 121°55'0 0.0
2015-Jun-15 15:32N 29°58' E 121°55'1 1.4
2015-Jun-15 14:34N 29°57' E 121°54'2 2.2
2015-Jun-15 13:29N 29°56' E 121°52'0 0.0
2015-Jun-15 12:29N 29°56' E 121°52'0 0.1
2015-Jun-15 11:28N 29°56' E 121°52'0 0.1
2015-Jun-15 10:22N 29°56' E 121°52'0 0.0
2015-Jun-15 09:22N 29°56' E 121°52'0 0.0
2015-Jun-15 08:33N 29°56' E 121°52'0 0.3
2015-Jun-15 07:33N 29°56' E 121°52'7 7.5
2015-Jun-15 06:33N 29°56' E 122°01'9 8.5
2015-Jun-15 05:33N 29°55' E 122°10'10 9.6
2015-Jun-15 04:33N 29°47' E 122°17'1010.3
2015-Jun-15 03:33N 29°45' E 122°28'8 1.3
2015-Jun-14 21:04N 29°45' E 122°38'0 0.2
2015-Jun-14 20:22N 29°45' E 122°38'0 0.1
2015-Jun-14 18:27N 29°45' E 122°38'0 0.0
2015-Jun-14 16:26N 29°45' E 122°38'0 0.1
2015-Jun-14 11:30N 29°45' E 122°38'0 0.0
2015-Jun-14 10:23N 29°45' E 122°38'0 0.1
2015-Jun-14 09:05N 29°45' E 122°38'0 0.1
2015-Jun-14 08:26N 29°45' E 122°38'7 7.8
2015-Jun-14 07:32N 29°49' E 122°45'1412.9
2015-Jun-14 06:27N 30°00' E 122°55'1112.6
2015-Jun-14 05:32N 30°09' E 123°03'1311.7
2015-Jun-14 04:28N 30°21' E 123°01'3711.2
2015-Jun-14 01:08N 30°58' E 122°53'910.2
2015-Jun-14 00:16N 31°05' E 122°47'811.3
2015-Jun-13 23:33N 31°05' E 122°37'10 9.9
2015-Jun-13 22:33N 31°06' E 122°26'1212.2
2015-Jun-13 21:33N 31°10' E 122°12'1414.1
2015-Jun-13 20:34N 31°15' E 121°57'1414.3
2015-Jun-13 19:33N 31°20' E 121°41'2 2.1
2015-Jun-13 18:32N 31°20' E 121°39'0 0.1
2015-Jun-13 17:28N 31°20' E 121°39'0 0.1
2015-Jun-13 16:33N 31°20' E 121°39'0 0.1
2015-Jun-13 15:29N 31°20' E 121°39'0 0.1
2015-Jun-13 14:33N 31°20' E 121°39'0 0.1
2015-Jun-13 13:32N 31°20' E 121°39'0 0.1
2015-Jun-13 12:32N 31°20' E 121°39'0 0.0
2015-Jun-13 11:32N 31°20' E 121°39'0 0.1
2015-Jun-13 10:31N 31°20' E 121°39'0 0.1
2015-Jun-13 09:32N 31°20' E 121°39'0 0.1
2015-Jun-13 08:32N 31°20' E 121°39'0 0.1
2015-Jun-13 07:31N 31°20' E 121°39'0 0.0
2015-Jun-13 06:30N 31°20' E 121°39'8 8.4
2015-Jun-13 05:33N 31°18' E 121°48'1212.0
2015-Jun-13 04:33N 31°15' E 122°01'1110.6
2015-Jun-13 03:33N 31°10' E 122°12'1211.8
2015-Jun-13 02:30N 31°07' E 122°26'1010.3
2015-Jun-13 01:33N 31°07' E 122°38'14 2.3
2015-Jun-12 19:27N 31°05' E 122°54'0 0.1
2015-Jun-12 18:33N 31°05' E 122°54'0 0.0
2015-Jun-12 16:23N 31°05' E 122°54'5 6.1
2015-Jun-12 15:33N 30°60' E 122°55'1211.6
2015-Jun-12 14:33N 30°48' E 122°57'1312.6
2015-Jun-12 13:29N 30°35' E 122°60'1213.0
2015-Jun-12 12:32N 30°23' E 123°02'1312.7
2015-Jun-12 11:30N 30°10' E 123°06'1313.6
2015-Jun-12 10:32N 29°57' E 123°06'1713.6
2015-Jun-12 09:19N 29°42' E 122°58'3812.6
2015-Jun-12 06:20N 29°08' E 122°39'27212.9
2015-Jun-11 09:11N 25°02' E 120°28'13413.7
2015-Jun-10 23:24N 22°52' E 119°55'1113.3
2015-Jun-10 22:34N 22°43' E 120°03'1312.7
2015-Jun-10 21:33N 22°34' E 120°12'7 7.2
2015-Jun-10 20:33N 22°32' E 120°20'0 0.0
2015-Jun-10 19:26N 22°32' E 120°20'0 0.0
2015-Jun-10 16:07N 22°32' E 120°20'0 0.0
2015-Jun-10 15:18N 22°32' E 120°20'0 0.0
2015-Jun-10 14:24N 22°32' E 120°20'0 0.0
2015-Jun-10 13:33N 22°32' E 120°20'6 6.0
2015-Jun-10 12:33N 22°32' E 120°13'10 9.2
2015-Jun-10 11:31N 22°22' E 120°12'1111.8
2015-Jun-10 10:33N 22°11' E 120°11'1312.0
2015-Jun-10 09:26N 21°58' E 120°10'  
Track history (hours):
 
Tides and Currents Weather Stations Pressure Air Temp Water Temp Dewpoint Dewpoint Depression Visibility Wind Speed Wind Dir Waves Ship Positions

Lorraine

Last reported at 2015-Jun-17 17:34 UTC. Time now 2015-Jul-03 06:17 UTC.
Position N 22°21' E 120°01'.
Warning: this ship's position is 15 days out of date.

Length 221 m; draft 10.1 m.

Type: Ship. MMSI: 636012905.

Date/timePositionNaut miles runAvg speedWind from/ knotsBaromVisibWave heightAir tempDewpointWater temp
2015-Jun-17 17:34N 22°21' E 120°01'1616.5
2015-Jun-17 16:34N 22°33' E 120°13'6 6.3
2015-Jun-17 15:33N 22°33' E 120°20'0 0.0
2015-Jun-17 14:33N 22°33' E 120°20'0 0.0
2015-Jun-17 13:32N 22°33' E 120°20'0 0.0
2015-Jun-17 12:32N 22°33' E 120°20'0 0.0
2015-Jun-17 10:28N 22°33' E 120°20'0 0.0
2015-Jun-17 08:09N 22°33' E 120°20'0 0.0
2015-Jun-17 07:26N 22°33' E 120°20'1 1.5
2015-Jun-17 06:33N 22°33' E 120°18'9 8.7
2015-Jun-17 05:33N 22°37' E 120°10'2020.3
2015-Jun-17 04:33N 22°51' E 119°54'40616.7
2015-Jun-16 04:14N 29°12' E 122°32'2917.2
2015-Jun-16 02:33N 29°40' E 122°33'1515.4
2015-Jun-16 01:33N 29°47' E 122°16'1212.1
2015-Jun-16 00:32N 29°55' E 122°06'1010.5
2015-Jun-15 23:33N 29°58' E 121°55'0 0.1
2015-Jun-15 22:29N 29°58' E 121°55'0 0.0
2015-Jun-15 21:29N 29°58' E 121°55'0 0.0
2015-Jun-15 20:28N 29°58' E 121°55'0 0.0
2015-Jun-15 19:28N 29°58' E 121°55'0 0.0
2015-Jun-15 18:28N 29°58' E 121°55'0 0.0
2015-Jun-15 17:27N 29°58' E 121°55'0 0.0
2015-Jun-15 16:33N 29°58' E 121°55'0 0.0
2015-Jun-15 15:32N 29°58' E 121°55'1 1.4
2015-Jun-15 14:34N 29°57' E 121°54'2 2.2
2015-Jun-15 13:29N 29°56' E 121°52'0 0.0
2015-Jun-15 12:29N 29°56' E 121°52'0 0.1
2015-Jun-15 11:28N 29°56' E 121°52'0 0.1
2015-Jun-15 10:22N 29°56' E 121°52'0 0.0
2015-Jun-15 09:22N 29°56' E 121°52'0 0.0
2015-Jun-15 08:33N 29°56' E 121°52'0 0.3
2015-Jun-15 07:33N 29°56' E 121°52'7 7.5
2015-Jun-15 06:33N 29°56' E 122°01'9 8.5
2015-Jun-15 05:33N 29°55' E 122°10'10 9.6
2015-Jun-15 04:33N 29°47' E 122°17'1010.3
2015-Jun-15 03:33N 29°45' E 122°28'8 1.3
2015-Jun-14 21:04N 29°45' E 122°38'0 0.2
2015-Jun-14 20:22N 29°45' E 122°38'0 0.1
2015-Jun-14 18:27N 29°45' E 122°38'0 0.0
2015-Jun-14 16:26N 29°45' E 122°38'0 0.1
2015-Jun-14 11:30N 29°45' E 122°38'0 0.0
2015-Jun-14 10:23N 29°45' E 122°38'0 0.1
2015-Jun-14 09:05N 29°45' E 122°38'0 0.1
2015-Jun-14 08:26N 29°45' E 122°38'7 7.8
2015-Jun-14 07:32N 29°49' E 122°45'1412.9
2015-Jun-14 06:27N 30°00' E 122°55'1112.6
2015-Jun-14 05:32N 30°09' E 123°03'1311.7
2015-Jun-14 04:28N 30°21' E 123°01'3711.2
2015-Jun-14 01:08N 30°58' E 122°53'910.2
2015-Jun-14 00:16N 31°05' E 122°47'811.3
2015-Jun-13 23:33N 31°05' E 122°37'10 9.9
2015-Jun-13 22:33N 31°06' E 122°26'1212.2
2015-Jun-13 21:33N 31°10' E 122°12'1414.1
2015-Jun-13 20:34N 31°15' E 121°57'1414.3
2015-Jun-13 19:33N 31°20' E 121°41'2 2.1
2015-Jun-13 18:32N 31°20' E 121°39'0 0.1
2015-Jun-13 17:28N 31°20' E 121°39'0 0.1
2015-Jun-13 16:33N 31°20' E 121°39'0 0.1
2015-Jun-13 15:29N 31°20' E 121°39'0 0.1
2015-Jun-13 14:33N 31°20' E 121°39'0 0.1
2015-Jun-13 13:32N 31°20' E 121°39'0 0.1
2015-Jun-13 12:32N 31°20' E 121°39'0 0.0
2015-Jun-13 11:32N 31°20' E 121°39'0 0.1
2015-Jun-13 10:31N 31°20' E 121°39'0 0.1
2015-Jun-13 09:32N 31°20' E 121°39'0 0.1
2015-Jun-13 08:32N 31°20' E 121°39'0 0.1
2015-Jun-13 07:31N 31°20' E 121°39'0 0.0
2015-Jun-13 06:30N 31°20' E 121°39'8 8.4
2015-Jun-13 05:33N 31°18' E 121°48'1212.0
2015-Jun-13 04:33N 31°15' E 122°01'1110.6
2015-Jun-13 03:33N 31°10' E 122°12'1211.8
2015-Jun-13 02:30N 31°07' E 122°26'1010.3
2015-Jun-13 01:33N 31°07' E 122°38'14 2.3
2015-Jun-12 19:27N 31°05' E 122°54'0 0.1
2015-Jun-12 18:33N 31°05' E 122°54'0 0.0
2015-Jun-12 16:23N 31°05' E 122°54'5 6.1
2015-Jun-12 15:33N 30°60' E 122°55'1211.6
2015-Jun-12 14:33N 30°48' E 122°57'1312.6
2015-Jun-12 13:29N 30°35' E 122°60'1213.0
2015-Jun-12 12:32N 30°23' E 123°02'1312.7
2015-Jun-12 11:30N 30°10' E 123°06'1313.6
2015-Jun-12 10:32N 29°57' E 123°06'1713.6
2015-Jun-12 09:19N 29°42' E 122°58'3812.6
2015-Jun-12 06:20N 29°08' E 122°39'27212.9
2015-Jun-11 09:11N 25°02' E 120°28'13413.7
2015-Jun-10 23:24N 22°52' E 119°55'1113.3
2015-Jun-10 22:34N 22°43' E 120°03'1312.7
2015-Jun-10 21:33N 22°34' E 120°12'7 7.2
2015-Jun-10 20:33N 22°32' E 120°20'0 0.0
2015-Jun-10 19:26N 22°32' E 120°20'0 0.0
2015-Jun-10 16:07N 22°32' E 120°20'0 0.0
2015-Jun-10 15:18N 22°32' E 120°20'0 0.0
2015-Jun-10 14:24N 22°32' E 120°20'0 0.0
2015-Jun-10 13:33N 22°32' E 120°20'6 6.0
2015-Jun-10 12:33N 22°32' E 120°13'10 9.2
2015-Jun-10 11:31N 22°22' E 120°12'1111.8
2015-Jun-10 10:33N 22°11' E 120°11'1312.0
2015-Jun-10 09:26N 21°58' E 120°10'  

Dump ship's entire track history